sensor_id;sensor_type;location;lat;lon;timestamp;P1;durP1;ratioP1;P2;durP2;ratioP2
1751;SDS011;873;47.696;8.068;2023-03-25T00:02:14;8.03;;;1.10;;
1751;SDS011;873;47.696;8.068;2023-03-25T00:04:52;3.60;;;0.70;;
1751;SDS011;873;47.696;8.068;2023-03-25T00:07:19;2.93;;;0.80;;
1751;SDS011;873;47.696;8.068;2023-03-25T00:09:45;2.57;;;0.80;;
1751;SDS011;873;47.696;8.068;2023-03-25T00:12:12;8.77;;;1.27;;
1751;SDS011;873;47.696;8.068;2023-03-25T00:14:38;6.17;;;1.40;;
1751;SDS011;873;47.696;8.068;2023-03-25T00:17:18;2.10;;;1.20;;
1751;SDS011;873;47.696;8.068;2023-03-25T00:19:44;3.13;;;1.07;;
1751;SDS011;873;47.696;8.068;2023-03-25T00:22:10;4.13;;;0.97;;
1751;SDS011;873;47.696;8.068;2023-03-25T00:24:35;3.33;;;0.80;;
1751;SDS011;873;47.696;8.068;2023-03-25T00:27:01;3.67;;;1.00;;
1751;SDS011;873;47.696;8.068;2023-03-25T00:29:27;3.30;;;0.70;;
1751;SDS011;873;47.696;8.068;2023-03-25T00:31:53;3.23;;;1.00;;
1751;SDS011;873;47.696;8.068;2023-03-25T00:34:18;4.73;;;1.10;;
1751;SDS011;873;47.696;8.068;2023-03-25T00:36:44;3.90;;;1.00;;
1751;SDS011;873;47.696;8.068;2023-03-25T00:39:09;5.17;;;1.03;;
1751;SDS011;873;47.696;8.068;2023-03-25T00:41:35;4.70;;;0.67;;
1751;SDS011;873;47.696;8.068;2023-03-25T00:44:02;6.70;;;1.20;;
1751;SDS011;873;47.696;8.068;2023-03-25T00:46:29;4.53;;;0.70;;
1751;SDS011;873;47.696;8.068;2023-03-25T00:48:56;3.53;;;0.80;;
1751;SDS011;873;47.696;8.068;2023-03-25T00:51:23;2.87;;;0.63;;
1751;SDS011;873;47.696;8.068;2023-03-25T00:53:50;7.67;;;1.17;;
1751;SDS011;873;47.696;8.068;2023-03-25T00:56:17;6.67;;;1.10;;
1751;SDS011;873;47.696;8.068;2023-03-25T00:58:44;5.90;;;0.93;;
1751;SDS011;873;47.696;8.068;2023-03-25T01:01:12;6.20;;;0.73;;
1751;SDS011;873;47.696;8.068;2023-03-25T01:03:39;10.93;;;1.20;;
1751;SDS011;873;47.696;8.068;2023-03-25T01:06:09;2.87;;;0.97;;
1751;SDS011;873;47.696;8.068;2023-03-25T01:08:36;2.97;;;0.50;;
1751;SDS011;873;47.696;8.068;2023-03-25T01:11:17;7.50;;;0.90;;
1751;SDS011;873;47.696;8.068;2023-03-25T01:13:44;4.80;;;0.70;;
1751;SDS011;873;47.696;8.068;2023-03-25T01:16:10;5.83;;;1.10;;
1751;SDS011;873;47.696;8.068;2023-03-25T01:18:35;6.97;;;1.50;;
1751;SDS011;873;47.696;8.068;2023-03-25T01:21:04;6.57;;;0.93;;
1751;SDS011;873;47.696;8.068;2023-03-25T01:23:30;10.77;;;1.13;;
1751;SDS011;873;47.696;8.068;2023-03-25T01:25:56;3.33;;;0.77;;
1751;SDS011;873;47.696;8.068;2023-03-25T01:28:21;6.23;;;0.90;;
1751;SDS011;873;47.696;8.068;2023-03-25T01:30:47;7.63;;;1.30;;
1751;SDS011;873;47.696;8.068;2023-03-25T01:33:12;7.00;;;1.00;;
1751;SDS011;873;47.696;8.068;2023-03-25T01:35:38;6.00;;;0.80;;
1751;SDS011;873;47.696;8.068;2023-03-25T01:38:04;6.73;;;1.37;;
1751;SDS011;873;47.696;8.068;2023-03-25T01:40:30;5.43;;;1.17;;
1751;SDS011;873;47.696;8.068;2023-03-25T01:42:55;4.67;;;0.77;;
1751;SDS011;873;47.696;8.068;2023-03-25T01:45:26;3.37;;;0.70;;
1751;SDS011;873;47.696;8.068;2023-03-25T01:47:55;4.40;;;1.10;;
1751;SDS011;873;47.696;8.068;2023-03-25T01:50:25;8.97;;;1.70;;
1751;SDS011;873;47.696;8.068;2023-03-25T01:52:53;5.77;;;1.07;;
1751;SDS011;873;47.696;8.068;2023-03-25T01:55:18;4.43;;;1.10;;
1751;SDS011;873;47.696;8.068;2023-03-25T01:57:44;2.33;;;1.07;;
1751;SDS011;873;47.696;8.068;2023-03-25T02:00:12;4.03;;;0.83;;
1751;SDS011;873;47.696;8.068;2023-03-25T02:02:39;4.80;;;0.80;;
1751;SDS011;873;47.696;8.068;2023-03-25T02:05:19;4.33;;;0.93;;
1751;SDS011;873;47.696;8.068;2023-03-25T02:07:49;4.63;;;0.97;;
1751;SDS011;873;47.696;8.068;2023-03-25T02:10:15;6.73;;;0.93;;
1751;SDS011;873;47.696;8.068;2023-03-25T02:12:41;7.73;;;1.07;;
1751;SDS011;873;47.696;8.068;2023-03-25T02:15:09;6.53;;;0.80;;
1751;SDS011;873;47.696;8.068;2023-03-25T02:37:21;0.33;;;0.13;;
1751;SDS011;873;47.696;8.068;2023-03-25T02:40:14;1.70;;;0.10;;
1751;SDS011;873;47.696;8.068;2023-03-25T02:42:51;1.43;;;0.17;;
1751;SDS011;873;47.696;8.068;2023-03-25T02:48:02;0.13;;;0.10;;
1751;SDS011;873;47.696;8.068;2023-03-25T02:50:34;1.20;;;0.17;;
1751;SDS011;873;47.696;8.068;2023-03-25T02:53:03;0.70;;;0.27;;
1751;SDS011;873;47.696;8.068;2023-03-25T02:55:32;0.83;;;0.23;;
1751;SDS011;873;47.696;8.068;2023-03-25T02:57:59;1.73;;;0.20;;
1751;SDS011;873;47.696;8.068;2023-03-25T03:00:28;2.80;;;2.40;;
1751;SDS011;873;47.696;8.068;2023-03-25T03:02:56;0.20;;;0.13;;
1751;SDS011;873;47.696;8.068;2023-03-25T03:10:43;2.07;;;0.20;;
1751;SDS011;873;47.696;8.068;2023-03-25T03:13:19;1.03;;;0.27;;
1751;SDS011;873;47.696;8.068;2023-03-25T03:18:40;0.30;;;0.20;;
1751;SDS011;873;47.696;8.068;2023-03-25T03:21:12;0.37;;;0.10;;
1751;SDS011;873;47.696;8.068;2023-03-25T03:29:06;1.13;;;0.37;;
1751;SDS011;873;47.696;8.068;2023-03-25T03:31:39;2.37;;;0.30;;
1751;SDS011;873;47.696;8.068;2023-03-25T03:34:21;2.30;;;0.43;;
1751;SDS011;873;47.696;8.068;2023-03-25T03:36:51;4.17;;;0.50;;
1751;SDS011;873;47.696;8.068;2023-03-25T03:39:20;1.53;;;0.30;;
1751;SDS011;873;47.696;8.068;2023-03-25T03:41:51;1.30;;;0.40;;
1751;SDS011;873;47.696;8.068;2023-03-25T03:44:19;5.83;;;0.57;;
1751;SDS011;873;47.696;8.068;2023-03-25T03:46:50;1.80;;;0.33;;
1751;SDS011;873;47.696;8.068;2023-03-25T03:49:20;1.20;;;0.30;;
1751;SDS011;873;47.696;8.068;2023-03-25T03:51:50;0.70;;;0.30;;
1751;SDS011;873;47.696;8.068;2023-03-25T03:54:26;0.37;;;0.30;;
1751;SDS011;873;47.696;8.068;2023-03-25T03:56:56;3.10;;;0.40;;
1751;SDS011;873;47.696;8.068;2023-03-25T03:59:29;0.83;;;0.40;;
1751;SDS011;873;47.696;8.068;2023-03-25T04:02:03;3.07;;;0.80;;
1751;SDS011;873;47.696;8.068;2023-03-25T04:04:32;2.40;;;0.40;;
1751;SDS011;873;47.696;8.068;2023-03-25T04:07:03;5.03;;;0.70;;
1751;SDS011;873;47.696;8.068;2023-03-25T04:09:38;7.67;;;0.90;;
1751;SDS011;873;47.696;8.068;2023-03-25T04:12:21;2.73;;;0.40;;
1751;SDS011;873;47.696;8.068;2023-03-25T04:15:00;0.30;;;0.20;;
1751;SDS011;873;47.696;8.068;2023-03-25T04:17:28;2.33;;;0.30;;
1751;SDS011;873;47.696;8.068;2023-03-25T04:19:54;0.40;;;0.30;;
1751;SDS011;873;47.696;8.068;2023-03-25T04:22:20;0.30;;;0.20;;
1751;SDS011;873;47.696;8.068;2023-03-25T04:24:46;0.30;;;0.30;;
1751;SDS011;873;47.696;8.068;2023-03-25T04:27:14;2.20;;;0.30;;
1751;SDS011;873;47.696;8.068;2023-03-25T04:29:41;1.23;;;0.40;;
1751;SDS011;873;47.696;8.068;2023-03-25T04:32:08;1.33;;;0.30;;
1751;SDS011;873;47.696;8.068;2023-03-25T04:34:35;0.93;;;0.30;;
1751;SDS011;873;47.696;8.068;2023-03-25T04:37:01;0.10;;;0.10;;
1751;SDS011;873;47.696;8.068;2023-03-25T04:39:27;0.30;;;0.10;;
1751;SDS011;873;47.696;8.068;2023-03-25T04:41:53;0.00;;;0.00;;
1751;SDS011;873;47.696;8.068;2023-03-25T04:44:20;0.07;;;0.07;;
1751;SDS011;873;47.696;8.068;2023-03-25T04:46:49;0.00;;;0.00;;
1751;SDS011;873;47.696;8.068;2023-03-25T04:49:17;0.00;;;0.00;;
1751;SDS011;873;47.696;8.068;2023-03-25T04:51:45;0.10;;;0.00;;
1751;SDS011;873;47.696;8.068;2023-03-25T04:54:15;0.00;;;0.00;;
1751;SDS011;873;47.696;8.068;2023-03-25T04:56:42;0.20;;;0.00;;
1751;SDS011;873;47.696;8.068;2023-03-25T04:59:08;0.23;;;0.00;;
1751;SDS011;873;47.696;8.068;2023-03-25T05:01:36;0.00;;;0.00;;
1751;SDS011;873;47.696;8.068;2023-03-25T05:04:06;0.00;;;0.00;;
1751;SDS011;873;47.696;8.068;2023-03-25T05:06:37;0.00;;;0.00;;
1751;SDS011;873;47.696;8.068;2023-03-25T05:09:05;0.00;;;0.00;;
1751;SDS011;873;47.696;8.068;2023-03-25T05:11:32;1.83;;;0.00;;
1751;SDS011;873;47.696;8.068;2023-03-25T05:13:58;0.00;;;0.00;;
1751;SDS011;873;47.696;8.068;2023-03-25T05:16:24;0.10;;;0.00;;
1751;SDS011;873;47.696;8.068;2023-03-25T05:18:50;0.20;;;0.00;;
1751;SDS011;873;47.696;8.068;2023-03-25T05:21:16;0.73;;;0.13;;
1751;SDS011;873;47.696;8.068;2023-03-25T05:23:42;0.10;;;0.10;;
1751;SDS011;873;47.696;8.068;2023-03-25T05:26:08;0.87;;;0.17;;
1751;SDS011;873;47.696;8.068;2023-03-25T05:28:34;1.47;;;0.27;;
1751;SDS011;873;47.696;8.068;2023-03-25T05:31:01;1.20;;;0.50;;
1751;SDS011;873;47.696;8.068;2023-03-25T05:33:32;1.23;;;0.40;;
1751;SDS011;873;47.696;8.068;2023-03-25T05:36:02;0.57;;;0.37;;
1751;SDS011;873;47.696;8.068;2023-03-25T05:38:29;0.33;;;0.33;;
1751;SDS011;873;47.696;8.068;2023-03-25T05:40:57;2.90;;;0.40;;
1751;SDS011;873;47.696;8.068;2023-03-25T05:43:24;1.57;;;0.40;;
1751;SDS011;873;47.696;8.068;2023-03-25T05:45:49;1.97;;;0.60;;
1751;SDS011;873;47.696;8.068;2023-03-25T05:48:15;1.53;;;0.40;;
1751;SDS011;873;47.696;8.068;2023-03-25T05:50:40;3.03;;;0.60;;
1751;SDS011;873;47.696;8.068;2023-03-25T05:53:08;2.20;;;0.50;;
1751;SDS011;873;47.696;8.068;2023-03-25T05:55:36;1.57;;;0.47;;
1751;SDS011;873;47.696;8.068;2023-03-25T05:58:02;3.30;;;0.60;;
1751;SDS011;873;47.696;8.068;2023-03-25T06:00:28;1.17;;;0.47;;
1751;SDS011;873;47.696;8.068;2023-03-25T06:02:54;3.20;;;0.50;;
1751;SDS011;873;47.696;8.068;2023-03-25T06:05:20;3.27;;;0.40;;
1751;SDS011;873;47.696;8.068;2023-03-25T06:07:51;2.93;;;0.97;;
1751;SDS011;873;47.696;8.068;2023-03-25T06:10:20;1.63;;;0.47;;
1751;SDS011;873;47.696;8.068;2023-03-25T06:12:46;2.50;;;0.90;;
1751;SDS011;873;47.696;8.068;2023-03-25T06:15:14;3.70;;;0.60;;
1751;SDS011;873;47.696;8.068;2023-03-25T06:17:42;3.40;;;0.87;;
1751;SDS011;873;47.696;8.068;2023-03-25T06:20:10;2.93;;;1.13;;
1751;SDS011;873;47.696;8.068;2023-03-25T06:22:38;1.63;;;0.57;;
1751;SDS011;873;47.696;8.068;2023-03-25T06:25:04;3.27;;;0.60;;
1751;SDS011;873;47.696;8.068;2023-03-25T06:27:31;0.60;;;0.37;;
1751;SDS011;873;47.696;8.068;2023-03-25T06:29:59;1.40;;;0.60;;
1751;SDS011;873;47.696;8.068;2023-03-25T06:32:26;4.77;;;1.20;;
1751;SDS011;873;47.696;8.068;2023-03-25T06:34:52;1.77;;;0.47;;
1751;SDS011;873;47.696;8.068;2023-03-25T06:37:18;1.83;;;0.87;;
1751;SDS011;873;47.696;8.068;2023-03-25T06:39:43;4.03;;;0.80;;
1751;SDS011;873;47.696;8.068;2023-03-25T06:42:10;1.27;;;0.60;;
1751;SDS011;873;47.696;8.068;2023-03-25T06:44:36;5.83;;;0.90;;
1751;SDS011;873;47.696;8.068;2023-03-25T06:47:02;2.30;;;0.57;;
1751;SDS011;873;47.696;8.068;2023-03-25T06:49:29;5.63;;;1.77;;
1751;SDS011;873;47.696;8.068;2023-03-25T06:51:55;2.43;;;0.70;;
1751;SDS011;873;47.696;8.068;2023-03-25T06:54:21;2.93;;;0.70;;
1751;SDS011;873;47.696;8.068;2023-03-25T06:56:47;6.80;;;1.00;;
1751;SDS011;873;47.696;8.068;2023-03-25T06:59:13;3.53;;;0.90;;
1751;SDS011;873;47.696;8.068;2023-03-25T07:01:38;4.10;;;0.80;;
1751;SDS011;873;47.696;8.068;2023-03-25T07:04:05;4.70;;;0.63;;
1751;SDS011;873;47.696;8.068;2023-03-25T07:06:30;0.73;;;0.60;;
1751;SDS011;873;47.696;8.068;2023-03-25T07:08:56;4.57;;;0.73;;
1751;SDS011;873;47.696;8.068;2023-03-25T07:11:24;3.97;;;0.90;;
1751;SDS011;873;47.696;8.068;2023-03-25T07:13:51;4.40;;;0.97;;
1751;SDS011;873;47.696;8.068;2023-03-25T07:16:18;7.27;;;0.87;;
1751;SDS011;873;47.696;8.068;2023-03-25T07:18:45;4.83;;;0.80;;
1751;SDS011;873;47.696;8.068;2023-03-25T07:21:10;6.27;;;0.93;;
1751;SDS011;873;47.696;8.068;2023-03-25T07:23:36;4.50;;;0.80;;
1751;SDS011;873;47.696;8.068;2023-03-25T07:26:01;4.23;;;0.60;;
1751;SDS011;873;47.696;8.068;2023-03-25T07:28:27;5.73;;;1.20;;
1751;SDS011;873;47.696;8.068;2023-03-25T07:30:52;2.97;;;0.80;;
1751;SDS011;873;47.696;8.068;2023-03-25T07:33:18;2.93;;;0.47;;
1751;SDS011;873;47.696;8.068;2023-03-25T07:35:44;5.10;;;0.90;;
1751;SDS011;873;47.696;8.068;2023-03-25T07:38:09;8.10;;;0.97;;
1751;SDS011;873;47.696;8.068;2023-03-25T07:40:35;2.63;;;0.77;;
1751;SDS011;873;47.696;8.068;2023-03-25T07:43:01;3.20;;;0.90;;
1751;SDS011;873;47.696;8.068;2023-03-25T07:45:27;5.83;;;1.00;;
1751;SDS011;873;47.696;8.068;2023-03-25T07:47:52;4.90;;;0.90;;
1751;SDS011;873;47.696;8.068;2023-03-25T07:50:20;2.77;;;0.50;;
1751;SDS011;873;47.696;8.068;2023-03-25T07:52:46;2.60;;;0.50;;
1751;SDS011;873;47.696;8.068;2023-03-25T07:55:12;2.43;;;0.40;;
1751;SDS011;873;47.696;8.068;2023-03-25T07:57:39;6.60;;;0.90;;
1751;SDS011;873;47.696;8.068;2023-03-25T08:00:06;1.07;;;0.37;;
1751;SDS011;873;47.696;8.068;2023-03-25T08:02:32;1.63;;;0.40;;
1751;SDS011;873;47.696;8.068;2023-03-25T08:04:57;0.30;;;0.30;;
1751;SDS011;873;47.696;8.068;2023-03-25T08:07:23;1.40;;;0.70;;
1751;SDS011;873;47.696;8.068;2023-03-25T08:09:49;6.37;;;0.43;;
1751;SDS011;873;47.696;8.068;2023-03-25T08:12:15;2.00;;;0.20;;
1751;SDS011;873;47.696;8.068;2023-03-25T08:14:40;2.60;;;0.10;;
1751;SDS011;873;47.696;8.068;2023-03-25T08:17:06;0.87;;;0.40;;
1751;SDS011;873;47.696;8.068;2023-03-25T08:19:31;0.00;;;0.00;;
1751;SDS011;873;47.696;8.068;2023-03-25T08:21:57;0.33;;;0.10;;
1751;SDS011;873;47.696;8.068;2023-03-25T08:24:23;0.40;;;0.10;;
1751;SDS011;873;47.696;8.068;2023-03-25T08:26:51;0.17;;;0.10;;
1751;SDS011;873;47.696;8.068;2023-03-25T08:29:18;0.23;;;0.03;;
1751;SDS011;873;47.696;8.068;2023-03-25T08:31:44;0.30;;;0.07;;
1751;SDS011;873;47.696;8.068;2023-03-25T08:34:10;0.50;;;0.10;;
1751;SDS011;873;47.696;8.068;2023-03-25T08:36:37;0.00;;;0.00;;
1751;SDS011;873;47.696;8.068;2023-03-25T08:39:04;1.37;;;0.10;;
1751;SDS011;873;47.696;8.068;2023-03-25T08:41:33;0.30;;;0.07;;
1751;SDS011;873;47.696;8.068;2023-03-25T08:43:59;0.67;;;0.30;;
1751;SDS011;873;47.696;8.068;2023-03-25T08:46:24;0.60;;;0.10;;
1751;SDS011;873;47.696;8.068;2023-03-25T08:48:50;0.20;;;0.10;;
1751;SDS011;873;47.696;8.068;2023-03-25T08:51:17;1.23;;;0.33;;
1751;SDS011;873;47.696;8.068;2023-03-25T08:53:43;0.30;;;0.07;;
1751;SDS011;873;47.696;8.068;2023-03-25T08:56:08;3.83;;;0.20;;
1751;SDS011;873;47.696;8.068;2023-03-25T08:58:34;2.10;;;0.27;;
1751;SDS011;873;47.696;8.068;2023-03-25T09:01:00;1.27;;;0.20;;
1751;SDS011;873;47.696;8.068;2023-03-25T09:03:26;1.00;;;0.20;;
1751;SDS011;873;47.696;8.068;2023-03-25T09:05:52;0.47;;;0.27;;
1751;SDS011;873;47.696;8.068;2023-03-25T09:08:18;0.80;;;0.20;;
1751;SDS011;873;47.696;8.068;2023-03-25T09:10:43;0.00;;;0.00;;
1751;SDS011;873;47.696;8.068;2023-03-25T09:13:09;0.13;;;0.13;;
1751;SDS011;873;47.696;8.068;2023-03-25T09:15:35;0.07;;;0.07;;
1751;SDS011;873;47.696;8.068;2023-03-25T09:18:01;0.67;;;0.10;;
1751;SDS011;873;47.696;8.068;2023-03-25T09:20:27;0.30;;;0.10;;
1751;SDS011;873;47.696;8.068;2023-03-25T09:22:53;0.67;;;0.00;;
1751;SDS011;873;47.696;8.068;2023-03-25T09:25:18;0.10;;;0.10;;
1751;SDS011;873;47.696;8.068;2023-03-25T09:27:44;0.87;;;0.00;;
1751;SDS011;873;47.696;8.068;2023-03-25T09:30:10;0.10;;;0.10;;
1751;SDS011;873;47.696;8.068;2023-03-25T09:32:36;0.10;;;0.10;;
1751;SDS011;873;47.696;8.068;2023-03-25T09:35:02;1.70;;;0.10;;
1751;SDS011;873;47.696;8.068;2023-03-25T09:37:28;0.10;;;0.10;;
1751;SDS011;873;47.696;8.068;2023-03-25T09:39:53;0.00;;;0.00;;
1751;SDS011;873;47.696;8.068;2023-03-25T09:47:40;0.10;;;0.00;;
1751;SDS011;873;47.696;8.068;2023-03-25T09:50:14;0.00;;;0.00;;
1751;SDS011;873;47.696;8.068;2023-03-25T09:55:20;0.00;;;0.00;;
1751;SDS011;873;47.696;8.068;2023-03-25T09:57:49;0.00;;;0.00;;
1751;SDS011;873;47.696;8.068;2023-03-25T10:00:22;0.00;;;0.00;;
1751;SDS011;873;47.696;8.068;2023-03-25T10:08:38;0.00;;;0.00;;
1751;SDS011;873;47.696;8.068;2023-03-25T10:11:24;0.00;;;0.00;;
1751;SDS011;873;47.696;8.068;2023-03-25T10:14:01;0.00;;;0.00;;
1751;SDS011;873;47.696;8.068;2023-03-25T10:16:35;0.00;;;0.00;;
1751;SDS011;873;47.696;8.068;2023-03-25T10:19:24;0.00;;;0.00;;
1751;SDS011;873;47.696;8.068;2023-03-25T10:27:31;0.00;;;0.00;;
1751;SDS011;873;47.696;8.068;2023-03-25T10:30:03;0.00;;;0.00;;
1751;SDS011;873;47.696;8.068;2023-03-25T10:32:59;0.00;;;0.00;;
1751;SDS011;873;47.696;8.068;2023-03-25T10:35:28;0.00;;;0.00;;
1751;SDS011;873;47.696;8.068;2023-03-25T10:38:12;0.37;;;0.10;;
1751;SDS011;873;47.696;8.068;2023-03-25T10:40:44;0.20;;;0.00;;
1751;SDS011;873;47.696;8.068;2023-03-25T10:43:30;0.70;;;0.10;;
1751;SDS011;873;47.696;8.068;2023-03-25T10:45:59;1.93;;;0.30;;
1751;SDS011;873;47.696;8.068;2023-03-25T10:48:28;1.17;;;0.43;;
1751;SDS011;873;47.696;8.068;2023-03-25T10:51:00;0.20;;;0.20;;
1751;SDS011;873;47.696;8.068;2023-03-25T10:53:38;0.10;;;0.10;;
1751;SDS011;873;47.696;8.068;2023-03-25T10:56:07;1.63;;;0.30;;
1751;SDS011;873;47.696;8.068;2023-03-25T10:58:37;1.50;;;0.30;;
1751;SDS011;873;47.696;8.068;2023-03-25T11:01:12;2.00;;;0.40;;
1751;SDS011;873;47.696;8.068;2023-03-25T11:03:40;0.50;;;0.50;;
1751;SDS011;873;47.696;8.068;2023-03-25T11:06:06;2.00;;;0.63;;
1751;SDS011;873;47.696;8.068;2023-03-25T11:08:33;2.20;;;0.83;;
1751;SDS011;873;47.696;8.068;2023-03-25T11:10:58;1.67;;;0.70;;
1751;SDS011;873;47.696;8.068;2023-03-25T11:13:26;1.83;;;0.60;;
1751;SDS011;873;47.696;8.068;2023-03-25T11:15:53;1.97;;;0.50;;
1751;SDS011;873;47.696;8.068;2023-03-25T11:18:36;1.27;;;0.60;;
1751;SDS011;873;47.696;8.068;2023-03-25T11:21:05;2.00;;;0.60;;
1751;SDS011;873;47.696;8.068;2023-03-25T11:23:33;3.70;;;0.87;;
1751;SDS011;873;47.696;8.068;2023-03-25T11:28:49;4.20;;;0.70;;
1751;SDS011;873;47.696;8.068;2023-03-25T11:31:19;2.10;;;0.60;;
1751;SDS011;873;47.696;8.068;2023-03-25T11:36:52;2.20;;;0.80;;
1751;SDS011;873;47.696;8.068;2023-03-25T11:39:32;2.27;;;0.80;;
1751;SDS011;873;47.696;8.068;2023-03-25T11:42:03;0.70;;;0.63;;
1751;SDS011;873;47.696;8.068;2023-03-25T11:44:50;2.90;;;1.10;;
1751;SDS011;873;47.696;8.068;2023-03-25T11:47:20;3.77;;;0.70;;
1751;SDS011;873;47.696;8.068;2023-03-25T11:49:48;2.10;;;0.83;;
1751;SDS011;873;47.696;8.068;2023-03-25T11:52:19;2.63;;;0.80;;
1751;SDS011;873;47.696;8.068;2023-03-25T11:54:48;4.20;;;1.17;;
1751;SDS011;873;47.696;8.068;2023-03-25T11:57:19;2.37;;;0.57;;
1751;SDS011;873;47.696;8.068;2023-03-25T11:59:48;1.77;;;0.80;;
1751;SDS011;873;47.696;8.068;2023-03-25T12:07:46;3.17;;;1.13;;
1751;SDS011;873;47.696;8.068;2023-03-25T12:10:35;3.53;;;0.80;;
1751;SDS011;873;47.696;8.068;2023-03-25T12:13:11;1.53;;;0.57;;
1751;SDS011;873;47.696;8.068;2023-03-25T12:18:40;2.17;;;0.70;;
1751;SDS011;873;47.696;8.068;2023-03-25T12:21:32;2.83;;;0.70;;
1751;SDS011;873;47.696;8.068;2023-03-25T12:30:18;3.37;;;0.83;;
1751;SDS011;873;47.696;8.068;2023-03-25T12:59:12;3.40;;;0.80;;
1751;SDS011;873;47.696;8.068;2023-03-25T13:07:27;5.03;;;0.80;;
1751;SDS011;873;47.696;8.068;2023-03-25T13:10:10;4.00;;;1.17;;
1751;SDS011;873;47.696;8.068;2023-03-25T13:12:49;4.73;;;0.90;;
1751;SDS011;873;47.696;8.068;2023-03-25T13:18:00;2.30;;;0.87;;
1751;SDS011;873;47.696;8.068;2023-03-25T13:20:33;1.73;;;0.90;;
1751;SDS011;873;47.696;8.068;2023-03-25T13:23:03;3.23;;;0.80;;
1751;SDS011;873;47.696;8.068;2023-03-25T13:25:31;1.83;;;0.73;;
1751;SDS011;873;47.696;8.068;2023-03-25T13:28:02;2.70;;;0.87;;
1751;SDS011;873;47.696;8.068;2023-03-25T13:33:46;4.30;;;0.87;;
1751;SDS011;873;47.696;8.068;2023-03-25T13:36:19;3.37;;;1.10;;
1751;SDS011;873;47.696;8.068;2023-03-25T13:38:51;2.57;;;0.60;;
1751;SDS011;873;47.696;8.068;2023-03-25T13:41:22;2.33;;;0.50;;
1751;SDS011;873;47.696;8.068;2023-03-25T13:43:53;1.27;;;0.43;;
1751;SDS011;873;47.696;8.068;2023-03-25T13:46:36;2.47;;;0.93;;
1751;SDS011;873;47.696;8.068;2023-03-25T13:51:40;1.57;;;0.73;;
1751;SDS011;873;47.696;8.068;2023-03-25T13:54:11;3.57;;;0.87;;
1751;SDS011;873;47.696;8.068;2023-03-25T14:11:19;2.70;;;0.60;;
1751;SDS011;873;47.696;8.068;2023-03-25T14:14:01;3.67;;;1.00;;
1751;SDS011;873;47.696;8.068;2023-03-25T14:16:33;1.43;;;0.67;;
1751;SDS011;873;47.696;8.068;2023-03-25T14:19:02;1.27;;;0.60;;
1751;SDS011;873;47.696;8.068;2023-03-25T14:21:47;3.30;;;0.83;;
1751;SDS011;873;47.696;8.068;2023-03-25T14:26:59;4.00;;;0.47;;
1751;SDS011;873;47.696;8.068;2023-03-25T14:29:43;0.63;;;0.30;;
1751;SDS011;873;47.696;8.068;2023-03-25T14:34:51;3.97;;;0.93;;
1751;SDS011;873;47.696;8.068;2023-03-25T14:39:58;2.23;;;0.60;;
1751;SDS011;873;47.696;8.068;2023-03-25T14:48:20;3.73;;;0.60;;
1751;SDS011;873;47.696;8.068;2023-03-25T14:50:52;3.93;;;0.90;;
1751;SDS011;873;47.696;8.068;2023-03-25T14:53:21;2.50;;;0.60;;
1751;SDS011;873;47.696;8.068;2023-03-25T14:55:47;2.20;;;0.67;;
1751;SDS011;873;47.696;8.068;2023-03-25T15:00:50;1.90;;;0.70;;
1751;SDS011;873;47.696;8.068;2023-03-25T15:03:19;1.30;;;0.50;;
1751;SDS011;873;47.696;8.068;2023-03-25T15:05:54;4.00;;;0.70;;
1751;SDS011;873;47.696;8.068;2023-03-25T15:08:25;3.07;;;0.90;;
1751;SDS011;873;47.696;8.068;2023-03-25T15:11:05;4.33;;;0.80;;
1751;SDS011;873;47.696;8.068;2023-03-25T15:13:33;2.23;;;0.80;;
1751;SDS011;873;47.696;8.068;2023-03-25T15:16:02;1.03;;;0.60;;
1751;SDS011;873;47.696;8.068;2023-03-25T15:21:25;2.73;;;0.57;;
1751;SDS011;873;47.696;8.068;2023-03-25T15:23:58;1.47;;;0.50;;
1751;SDS011;873;47.696;8.068;2023-03-25T15:26:38;0.77;;;0.30;;
1751;SDS011;873;47.696;8.068;2023-03-25T15:34:46;1.93;;;0.43;;
1751;SDS011;873;47.696;8.068;2023-03-25T15:40:14;2.90;;;0.40;;
1751;SDS011;873;47.696;8.068;2023-03-25T15:42:58;2.53;;;0.40;;
1751;SDS011;873;47.696;8.068;2023-03-25T15:48:53;0.77;;;0.30;;
1751;SDS011;873;47.696;8.068;2023-03-25T15:54:42;1.67;;;0.50;;
1751;SDS011;873;47.696;8.068;2023-03-25T15:57:46;1.97;;;0.60;;
1751;SDS011;873;47.696;8.068;2023-03-25T16:00:31;0.80;;;0.33;;
1751;SDS011;873;47.696;8.068;2023-03-25T16:03:14;1.37;;;0.50;;
1751;SDS011;873;47.696;8.068;2023-03-25T16:05:45;1.20;;;0.40;;
1751;SDS011;873;47.696;8.068;2023-03-25T16:08:16;3.10;;;0.50;;
1751;SDS011;873;47.696;8.068;2023-03-25T16:10:46;2.17;;;0.50;;
1751;SDS011;873;47.696;8.068;2023-03-25T16:13:13;2.53;;;0.40;;
1751;SDS011;873;47.696;8.068;2023-03-25T16:15:47;2.93;;;0.60;;
1751;SDS011;873;47.696;8.068;2023-03-25T16:18:14;3.30;;;0.43;;
1751;SDS011;873;47.696;8.068;2023-03-25T16:20:40;1.47;;;0.50;;
1751;SDS011;873;47.696;8.068;2023-03-25T16:23:12;1.67;;;0.50;;
1751;SDS011;873;47.696;8.068;2023-03-25T16:25:41;3.40;;;0.40;;
1751;SDS011;873;47.696;8.068;2023-03-25T16:28:16;6.30;;;0.70;;
1751;SDS011;873;47.696;8.068;2023-03-25T16:30:47;2.27;;;0.47;;
1751;SDS011;873;47.696;8.068;2023-03-25T16:33:16;2.67;;;0.60;;
1751;SDS011;873;47.696;8.068;2023-03-25T16:35:46;3.37;;;0.60;;
1751;SDS011;873;47.696;8.068;2023-03-25T16:38:15;1.67;;;0.40;;
1751;SDS011;873;47.696;8.068;2023-03-25T16:40:44;4.07;;;0.60;;
1751;SDS011;873;47.696;8.068;2023-03-25T16:45:49;1.40;;;0.60;;
1751;SDS011;873;47.696;8.068;2023-03-25T16:48:17;1.23;;;0.50;;
1751;SDS011;873;47.696;8.068;2023-03-25T16:50:46;1.97;;;0.60;;
1751;SDS011;873;47.696;8.068;2023-03-25T16:53:13;1.50;;;0.43;;
1751;SDS011;873;47.696;8.068;2023-03-25T16:58:19;3.43;;;0.40;;
1751;SDS011;873;47.696;8.068;2023-03-25T17:00:47;2.47;;;0.80;;
1751;SDS011;873;47.696;8.068;2023-03-25T17:03:17;2.50;;;0.40;;
1751;SDS011;873;47.696;8.068;2023-03-25T17:06:02;2.70;;;0.60;;
1751;SDS011;873;47.696;8.068;2023-03-25T17:08:33;4.07;;;1.30;;
1751;SDS011;873;47.696;8.068;2023-03-25T17:11:00;1.63;;;0.60;;
1751;SDS011;873;47.696;8.068;2023-03-25T17:16:04;3.07;;;0.90;;
1751;SDS011;873;47.696;8.068;2023-03-25T17:18:31;2.83;;;0.63;;
1751;SDS011;873;47.696;8.068;2023-03-25T17:20:59;3.53;;;0.67;;
1751;SDS011;873;47.696;8.068;2023-03-25T17:23:31;2.67;;;0.70;;
1751;SDS011;873;47.696;8.068;2023-03-25T17:26:00;3.97;;;1.10;;
1751;SDS011;873;47.696;8.068;2023-03-25T17:31:33;2.72;;;0.90;;
1751;SDS011;873;47.696;8.068;2023-03-25T17:37:04;2.33;;;0.70;;
1751;SDS011;873;47.696;8.068;2023-03-25T17:39:32;1.67;;;0.50;;
1751;SDS011;873;47.696;8.068;2023-03-25T17:41:59;3.03;;;0.60;;
1751;SDS011;873;47.696;8.068;2023-03-25T17:44:30;3.10;;;0.80;;
1751;SDS011;873;47.696;8.068;2023-03-25T17:47:14;2.00;;;0.60;;
1751;SDS011;873;47.696;8.068;2023-03-25T17:49:40;0.83;;;0.40;;
1751;SDS011;873;47.696;8.068;2023-03-25T17:52:06;5.93;;;0.77;;
1751;SDS011;873;47.696;8.068;2023-03-25T17:54:33;2.87;;;0.70;;
1751;SDS011;873;47.696;8.068;2023-03-25T17:56:59;4.13;;;1.00;;
1751;SDS011;873;47.696;8.068;2023-03-25T17:59:25;4.27;;;0.70;;
1751;SDS011;873;47.696;8.068;2023-03-25T18:01:51;1.63;;;0.60;;
1751;SDS011;873;47.696;8.068;2023-03-25T18:04:17;4.20;;;0.60;;
1751;SDS011;873;47.696;8.068;2023-03-25T18:06:44;1.87;;;0.40;;
1751;SDS011;873;47.696;8.068;2023-03-25T18:09:13;2.60;;;0.43;;
1751;SDS011;873;47.696;8.068;2023-03-25T18:11:41;2.73;;;0.33;;
1751;SDS011;873;47.696;8.068;2023-03-25T18:14:06;4.33;;;0.80;;
1751;SDS011;873;47.696;8.068;2023-03-25T18:16:32;2.67;;;0.53;;
1751;SDS011;873;47.696;8.068;2023-03-25T18:18:57;1.80;;;0.60;;
1751;SDS011;873;47.696;8.068;2023-03-25T18:21:23;1.97;;;0.80;;
1751;SDS011;873;47.696;8.068;2023-03-25T18:23:49;1.23;;;0.50;;
1751;SDS011;873;47.696;8.068;2023-03-25T18:26:16;2.73;;;0.73;;
1751;SDS011;873;47.696;8.068;2023-03-25T18:28:43;4.60;;;0.63;;
1751;SDS011;873;47.696;8.068;2023-03-25T22:50:57;6.90;;;1.23;;
1751;SDS011;873;47.696;8.068;2023-03-25T22:53:24;6.53;;;1.47;;
1751;SDS011;873;47.696;8.068;2023-03-25T22:55:51;4.37;;;1.37;;
1751;SDS011;873;47.696;8.068;2023-03-25T22:58:19;4.07;;;1.40;;
1751;SDS011;873;47.696;8.068;2023-03-25T23:00:46;10.73;;;1.60;;
1751;SDS011;873;47.696;8.068;2023-03-25T23:03:13;8.83;;;1.23;;